createdAt,value
2018-08-17T00:01:05.096Z,90.10
2018-08-17T00:03:33.464Z,90.10
2018-08-17T00:06:01.893Z,90.20
2018-08-17T00:08:30.242Z,90.30
2018-08-17T00:10:58.695Z,90.40
2018-08-17T00:13:27.216Z,90.50
2018-08-17T00:15:55.556Z,90.50
2018-08-17T00:18:23.949Z,90.60
2018-08-17T00:20:52.324Z,90.60
2018-08-17T00:23:20.663Z,90.60
2018-08-17T00:25:49.020Z,90.70
2018-08-17T00:28:17.404Z,90.70
2018-08-17T00:30:46.100Z,90.80
2018-08-17T00:33:14.467Z,90.80
2018-08-17T00:35:42.806Z,90.90
2018-08-17T00:38:11.140Z,90.80
2018-08-17T00:40:39.520Z,90.90
2018-08-17T00:43:07.840Z,91.00
2018-08-17T00:45:36.251Z,91.10
2018-08-17T00:48:04.905Z,91.20
2018-08-17T00:50:33.487Z,91.20
2018-08-17T00:53:01.800Z,91.40
2018-08-17T00:55:30.196Z,91.40
2018-08-17T00:57:58.524Z,91.40
2018-08-17T01:00:26.887Z,91.50
2018-08-17T01:02:55.267Z,91.50
2018-08-17T01:05:23.696Z,91.40
2018-08-17T01:07:52.036Z,91.60
2018-08-17T01:10:20.428Z,91.60
2018-08-17T01:12:48.759Z,91.60
2018-08-17T01:15:17.133Z,91.70
2018-08-17T01:17:45.463Z,91.70
2018-08-17T01:20:13.932Z,91.80
2018-08-17T01:22:42.628Z,91.90
2018-08-17T01:25:10.996Z,92.00
2018-08-17T01:27:39.436Z,92.10
2018-08-17T01:30:08.718Z,92.20
2018-08-17T01:32:37.185Z,92.10
2018-08-17T01:35:05.819Z,92.30
2018-08-17T01:37:34.176Z,92.30
2018-08-17T01:40:02.556Z,92.30
2018-08-17T01:42:30.889Z,92.40
2018-08-17T01:44:59.235Z,92.40
2018-08-17T01:47:27.620Z,92.50
2018-08-17T01:49:56.012Z,92.50
2018-08-17T01:52:24.349Z,92.60
2018-08-17T01:54:52.680Z,92.50
2018-08-17T01:57:21.004Z,92.50
2018-08-17T01:59:49.417Z,92.50
2018-08-17T02:02:17.732Z,92.50
2018-08-17T02:04:46.097Z,92.60
2018-08-17T02:07:16.536Z,93.10
2018-08-17T02:09:44.969Z,92.70
2018-08-17T02:12:13.285Z,92.70
2018-08-17T02:14:41.731Z,92.70
2018-08-17T02:17:10.066Z,92.80
2018-08-17T02:19:38.499Z,92.90
2018-08-17T02:22:06.896Z,92.90
2018-08-17T02:24:35.215Z,92.90
2018-08-17T02:27:03.592Z,93.00
2018-08-17T02:29:31.921Z,93.00
2018-08-17T02:32:00.320Z,93.10
2018-08-17T02:34:28.731Z,93.00
2018-08-17T02:36:57.116Z,93.10
2018-08-17T02:39:25.473Z,93.10
2018-08-17T02:41:53.821Z,93.10
2018-08-17T02:44:22.162Z,93.10
2018-08-17T02:46:50.517Z,93.10
2018-08-17T02:49:18.861Z,93.30
2018-08-17T02:51:47.245Z,93.30
2018-08-17T02:54:15.710Z,93.30
2018-08-17T02:56:44.088Z,93.30
2018-08-17T02:59:12.437Z,93.30
2018-08-17T03:01:40.811Z,93.30
2018-08-17T03:04:09.164Z,93.40
2018-08-17T03:06:37.608Z,93.30
2018-08-17T03:09:07.889Z,93.30
2018-08-17T03:11:36.222Z,93.30
2018-08-17T03:14:05.227Z,93.30
2018-08-17T03:16:33.584Z,93.40
2018-08-17T03:19:02.013Z,93.40
2018-08-17T03:21:30.328Z,93.50
2018-08-17T03:23:58.712Z,93.50
2018-08-17T03:26:27.056Z,93.50
2018-08-17T03:28:55.494Z,93.50
2018-08-17T03:31:23.980Z,93.50
2018-08-17T03:33:52.369Z,93.50
2018-08-17T03:36:20.748Z,93.50
2018-08-17T03:38:49.228Z,93.60
2018-08-17T03:41:17.613Z,93.60
2018-08-17T03:43:45.997Z,93.60
2018-08-17T03:46:14.480Z,93.40
2018-08-17T03:48:42.904Z,93.70
2018-08-17T03:51:11.250Z,93.80
2018-08-17T03:53:39.586Z,93.80
2018-08-17T03:56:07.967Z,93.90
2018-08-17T03:58:36.387Z,93.90
2018-08-17T04:01:04.750Z,93.90
2018-08-17T04:03:33.096Z,94.00
2018-08-17T04:06:01.413Z,94.30
2018-08-17T04:08:29.747Z,93.90
2018-08-17T04:10:58.108Z,93.90
2018-08-17T04:13:26.449Z,93.90
2018-08-17T04:15:54.793Z,93.90
2018-08-17T04:18:23.269Z,93.90
2018-08-17T04:20:51.649Z,93.90
2018-08-17T04:23:19.977Z,93.90
2018-08-17T04:25:48.329Z,93.80
2018-08-17T04:28:16.680Z,93.90
2018-08-17T04:30:45.042Z,93.90
2018-08-17T04:33:13.417Z,94.00
2018-08-17T04:35:41.797Z,94.00
2018-08-17T04:38:10.164Z,94.00
2018-08-17T04:40:38.650Z,94.10
2018-08-17T04:43:07.103Z,94.10
2018-08-17T04:45:35.445Z,94.10
2018-08-17T04:48:03.920Z,94.10
2018-08-17T04:50:32.250Z,94.20
2018-08-17T04:53:00.594Z,94.20
2018-08-17T04:55:28.877Z,94.30
2018-08-17T04:57:57.232Z,94.40
2018-08-17T05:00:25.658Z,94.40
2018-08-17T05:05:28.580Z,94.40
2018-08-17T05:07:56.997Z,94.40
2018-08-17T05:10:25.400Z,94.40
2018-08-17T05:12:53.775Z,94.50
2018-08-17T05:15:22.121Z,94.50
2018-08-17T05:17:50.457Z,94.60
2018-08-17T05:20:18.870Z,95.00
2018-08-17T05:22:47.268Z,94.70
2018-08-17T05:25:15.738Z,94.80
2018-08-17T05:27:44.105Z,94.80
2018-08-17T05:30:12.553Z,95.00
2018-08-17T05:32:41.038Z,95.00
2018-08-17T05:35:09.541Z,95.10
2018-08-17T05:37:38.004Z,95.10
2018-08-17T05:40:07.604Z,95.10
2018-08-17T05:42:36.320Z,95.20
2018-08-17T05:45:05.537Z,95.20
2018-08-17T05:47:33.812Z,95.30
2018-08-17T05:50:02.317Z,95.30
2018-08-17T05:52:30.657Z,95.30
2018-08-17T05:54:59.101Z,95.30
2018-08-17T05:57:27.496Z,95.30
2018-08-17T05:59:56.009Z,95.30
2018-08-17T06:02:24.426Z,95.30
2018-08-17T06:04:52.933Z,95.20
2018-08-17T06:07:21.720Z,95.20
2018-08-17T06:09:50.155Z,95.10
2018-08-17T06:12:18.585Z,95.20
2018-08-17T06:14:47.067Z,95.30
2018-08-17T06:17:15.416Z,95.10
2018-08-17T06:19:43.780Z,95.10
2018-08-17T06:22:16.330Z,95.10
2018-08-17T06:24:44.678Z,95.00
2018-08-17T06:27:13.034Z,95.00
2018-08-17T06:29:41.408Z,95.00
2018-08-17T06:32:10.197Z,94.90
2018-08-17T06:34:39.001Z,94.80
2018-08-17T06:37:07.692Z,94.70
2018-08-17T06:39:36.263Z,94.60
2018-08-17T06:42:04.733Z,94.50
2018-08-17T06:44:33.104Z,94.40
2018-08-17T06:47:01.548Z,94.30
2018-08-17T06:49:29.924Z,94.30
2018-08-17T06:51:58.429Z,94.20
2018-08-17T06:54:26.793Z,94.10
2018-08-17T06:56:55.398Z,93.90
2018-08-17T06:59:23.804Z,93.80
2018-08-17T07:01:52.338Z,93.80
2018-08-17T07:04:20.784Z,93.60
2018-08-17T07:06:49.301Z,93.40
2018-08-17T07:09:17.657Z,93.10
2018-08-17T07:11:46.032Z,93.00
2018-08-17T07:14:14.433Z,92.90
2018-08-17T07:16:43.397Z,92.60
2018-08-17T07:19:11.908Z,92.40
2018-08-17T07:21:40.493Z,92.20
2018-08-17T07:24:08.825Z,92.00
2018-08-17T07:26:37.176Z,91.80
2018-08-17T07:29:05.601Z,91.70
2018-08-17T07:31:33.989Z,91.60
2018-08-17T07:34:02.357Z,91.40
2018-08-17T07:36:30.714Z,91.00
2018-08-17T07:38:59.144Z,90.90
2018-08-17T07:41:27.537Z,90.80
2018-08-17T07:43:55.982Z,90.70
2018-08-17T07:46:24.414Z,90.50
2018-08-17T07:48:52.760Z,90.10
2018-08-17T07:51:21.116Z,90.00
2018-08-17T07:53:49.445Z,90.30
2018-08-17T07:56:17.880Z,89.70
2018-08-17T07:58:46.328Z,90.00
2018-08-17T08:01:14.827Z,89.20
2018-08-17T08:03:45.280Z,88.10
2018-08-17T08:06:13.629Z,87.80
2018-08-17T08:08:42.152Z,87.50
2018-08-17T08:11:10.637Z,87.40
2018-08-17T08:13:38.963Z,87.20
2018-08-17T08:16:07.436Z,87.00
2018-08-17T08:18:35.793Z,85.90
2018-08-17T08:21:04.273Z,85.00
2018-08-17T08:23:32.681Z,84.60
2018-08-17T08:26:01.170Z,83.90
2018-08-17T08:28:29.524Z,83.10
2018-08-17T08:30:58.070Z,82.90
2018-08-17T08:33:26.501Z,82.10
2018-08-17T08:35:54.895Z,81.50
2018-08-17T08:38:23.269Z,80.60
2018-08-17T08:40:51.752Z,79.30
2018-08-17T08:43:20.127Z,78.60
2018-08-17T08:45:48.504Z,77.80
2018-08-17T08:48:16.880Z,76.90
2018-08-17T08:50:45.514Z,76.10
2018-08-17T08:53:14.105Z,75.70
2018-08-17T08:55:42.448Z,75.60
2018-08-17T08:58:11.106Z,74.50
2018-08-17T09:00:39.501Z,74.10
2018-08-17T09:03:08.136Z,73.70
2018-08-17T09:05:36.538Z,73.10
2018-08-17T09:08:05.187Z,72.80
2018-08-17T09:10:33.589Z,72.90
2018-08-17T09:13:02.101Z,72.60
2018-08-17T09:15:30.593Z,72.10
2018-08-17T09:17:59.150Z,72.00
2018-08-17T09:20:27.647Z,72.70
2018-08-17T09:22:55.925Z,71.90
2018-08-17T09:25:24.304Z,71.70
2018-08-17T09:27:52.800Z,71.80
2018-08-17T09:30:21.328Z,71.90
2018-08-17T09:32:49.852Z,71.40
2018-08-17T09:35:18.286Z,71.30
2018-08-17T09:37:46.700Z,71.20
2018-08-17T09:40:15.168Z,71.30
2018-08-17T09:42:43.546Z,71.60
2018-08-17T09:45:13.077Z,71.80
2018-08-17T09:47:41.477Z,71.70
2018-08-17T09:50:12.157Z,71.20
2018-08-17T09:52:40.841Z,70.70
2018-08-17T09:55:09.264Z,70.80
2018-08-17T09:57:37.693Z,71.00
2018-08-17T10:00:07.612Z,70.50
2018-08-17T10:02:41.565Z,70.40
2018-08-17T10:05:15.125Z,70.40
2018-08-17T10:07:49.011Z,70.90
2018-08-17T10:10:17.933Z,70.90
2018-08-17T10:12:47.044Z,70.90
2018-08-17T10:15:15.556Z,71.30
2018-08-17T10:17:43.920Z,71.60
2018-08-17T10:20:14.599Z,71.60
2018-08-17T10:22:43.206Z,71.90
2018-08-17T10:25:16.279Z,72.10
2018-08-17T10:27:46.008Z,72.10
2018-08-17T10:30:14.629Z,72.10
2018-08-17T10:32:48.272Z,72.20
2018-08-17T10:35:21.829Z,72.30
2018-08-17T10:37:50.172Z,72.30
2018-08-17T10:40:18.522Z,72.40
2018-08-17T10:42:47.240Z,72.20
2018-08-17T10:45:15.780Z,72.00
2018-08-17T10:47:44.124Z,71.60
2018-08-17T10:50:19.603Z,72.40
2018-08-17T10:52:55.183Z,71.80
2018-08-17T10:55:26.300Z,71.70
2018-08-17T10:57:54.568Z,71.90
2018-08-17T11:00:23.241Z,72.20
2018-08-17T11:02:51.705Z,72.20
2018-08-17T11:05:20.100Z,72.30
2018-08-17T11:07:49.283Z,72.20
2018-08-17T11:10:17.648Z,72.30
2018-08-17T11:12:47.196Z,72.40
2018-08-17T11:15:15.641Z,72.70
2018-08-17T11:17:44.977Z,73.00
2018-08-17T11:20:14.994Z,73.40
2018-08-17T11:22:43.360Z,73.70
2018-08-17T11:25:11.737Z,74.30
2018-08-17T11:27:40.148Z,74.90
2018-08-17T11:30:11.633Z,75.40
2018-08-17T11:32:40.217Z,75.90
2018-08-17T11:35:08.633Z,76.90
2018-08-17T11:37:36.957Z,78.30
2018-08-17T11:40:06.865Z,80.00
2018-08-17T11:42:45.101Z,81.40
2018-08-17T11:45:15.932Z,82.10
2018-08-17T11:47:44.884Z,82.90
2018-08-17T11:50:15.511Z,83.40
2018-08-17T11:53:00.349Z,83.90
2018-08-17T11:55:31.493Z,84.50
2018-08-17T11:57:59.925Z,85.00
2018-08-17T12:00:32.732Z,85.40
2018-08-17T12:03:01.241Z,86.30
2018-08-17T12:05:29.552Z,87.20
2018-08-17T12:07:57.897Z,87.60
2018-08-17T12:10:26.226Z,87.90
2018-08-17T12:12:55.489Z,88.10
2018-08-17T12:15:23.828Z,88.10
2018-08-17T12:17:52.198Z,87.90
2018-08-17T12:20:20.552Z,88.10
2018-08-17T12:22:48.888Z,88.00
2018-08-17T12:25:17.284Z,88.00
2018-08-17T12:27:52.833Z,87.70
2018-08-17T12:30:21.703Z,87.30
2018-08-17T12:32:50.077Z,87.00
2018-08-17T12:35:18.485Z,86.50
2018-08-17T12:37:46.904Z,85.80
2018-08-17T12:40:15.729Z,85.50
2018-08-17T12:42:44.033Z,85.10
2018-08-17T12:45:17.557Z,84.40
2018-08-17T12:47:45.913Z,84.10
2018-08-17T12:50:14.238Z,83.40
2018-08-17T12:52:42.555Z,81.80
2018-08-17T12:55:10.976Z,79.60
2018-08-17T12:57:41.933Z,76.80
2018-08-17T13:00:11.085Z,75.30
2018-08-17T13:02:39.453Z,74.10
2018-08-17T13:05:07.869Z,73.70
2018-08-17T13:07:36.464Z,73.40
2018-08-17T13:10:05.046Z,73.20
2018-08-17T13:12:33.372Z,73.00
2018-08-17T13:15:01.749Z,72.80
2018-08-17T13:17:35.457Z,73.50
2018-08-17T13:20:03.821Z,72.50
2018-08-17T13:22:32.168Z,71.30
2018-08-17T13:25:00.541Z,70.60
2018-08-17T13:27:31.732Z,70.90
2018-08-17T13:30:00.382Z,70.40
2018-08-17T13:32:29.801Z,69.80
2018-08-17T13:35:02.831Z,69.70
2018-08-17T13:37:31.237Z,70.50
2018-08-17T13:39:59.639Z,70.90
2018-08-17T13:42:28.105Z,71.40
2018-08-17T13:44:56.449Z,71.30
2018-08-17T13:47:24.951Z,72.10
2018-08-17T13:49:53.272Z,72.30
2018-08-17T13:52:21.585Z,72.60
2018-08-17T13:54:49.917Z,72.30
2018-08-17T13:57:18.268Z,72.70
2018-08-17T13:59:46.955Z,72.40
2018-08-17T14:02:15.657Z,73.00
2018-08-17T14:04:43.945Z,72.90
2018-08-17T14:07:12.267Z,73.40
2018-08-17T14:09:40.616Z,74.00
2018-08-17T14:12:09.517Z,74.50
2018-08-17T14:14:37.896Z,74.80
2018-08-17T14:17:06.629Z,75.00
2018-08-17T14:19:35.045Z,75.40
2018-08-17T14:22:03.620Z,75.50
2018-08-17T14:24:32.044Z,75.40
2018-08-17T14:27:00.413Z,75.40
2018-08-17T14:29:28.971Z,75.90
2018-08-17T14:31:57.460Z,75.80
2018-08-17T14:34:25.823Z,76.40
2018-08-17T14:36:54.204Z,75.60
2018-08-17T14:39:22.580Z,75.90
2018-08-17T14:41:58.656Z,76.10
2018-08-17T14:44:27.695Z,76.10
2018-08-17T14:46:56.384Z,76.20
2018-08-17T14:49:25.389Z,76.30
2018-08-17T14:51:53.841Z,76.20
2018-08-17T14:54:22.169Z,76.20
2018-08-17T14:56:50.538Z,76.20
2018-08-17T14:59:18.904Z,76.20
2018-08-17T15:01:47.410Z,76.00
2018-08-17T15:04:15.991Z,75.80
2018-08-17T15:06:44.504Z,75.70
2018-08-17T15:09:14.199Z,75.60
2018-08-17T15:11:43.317Z,75.70
2018-08-17T15:14:12.824Z,75.70
2018-08-17T15:16:41.729Z,75.60
2018-08-17T15:19:10.074Z,75.60
2018-08-17T15:21:38.738Z,75.60
2018-08-17T15:24:07.346Z,75.30
2018-08-17T15:26:35.852Z,75.40
2018-08-17T15:29:04.674Z,75.30
2018-08-17T15:31:33.013Z,75.30
2018-08-17T15:34:01.372Z,75.40
2018-08-17T15:36:29.680Z,75.00
2018-08-17T15:38:58.138Z,74.80
2018-08-17T15:41:26.529Z,74.80
2018-08-17T15:43:54.847Z,74.90
2018-08-17T15:46:23.161Z,74.70
2018-08-17T15:48:53.769Z,74.70
2018-08-17T15:51:22.158Z,74.70
2018-08-17T15:53:50.741Z,75.00
2018-08-17T15:56:19.201Z,74.90
2018-08-17T15:58:47.840Z,75.00
2018-08-17T16:01:16.283Z,74.80
2018-08-17T16:03:44.715Z,74.70
2018-08-17T16:06:13.133Z,74.80
2018-08-17T16:08:41.507Z,74.80
2018-08-17T16:11:10.325Z,74.70
2018-08-17T16:13:38.648Z,74.70
2018-08-17T16:16:07.020Z,74.90
2018-08-17T16:18:35.859Z,75.10
2018-08-17T16:21:04.280Z,75.20
2018-08-17T16:23:32.638Z,75.00
2018-08-17T16:26:00.993Z,74.70
2018-08-17T16:28:29.376Z,75.10
2018-08-17T16:30:57.702Z,75.40
2018-08-17T16:33:26.108Z,75.70
2018-08-17T16:35:54.585Z,75.90
2018-08-17T16:38:22.946Z,76.00
2018-08-17T16:40:52.194Z,75.70
2018-08-17T16:43:22.707Z,75.10
2018-08-17T16:45:51.224Z,75.10
2018-08-17T16:48:19.836Z,75.80
2018-08-17T16:50:48.467Z,75.00
2018-08-17T16:53:17.026Z,75.00
2018-08-17T16:55:45.373Z,74.70
2018-08-17T16:58:13.740Z,74.80
2018-08-17T17:00:42.195Z,74.70
2018-08-17T17:03:10.501Z,74.30
2018-08-17T17:05:38.863Z,74.40
2018-08-17T17:08:07.464Z,74.70
2018-08-17T17:10:35.837Z,74.50
2018-08-17T17:13:04.193Z,74.30
2018-08-17T17:15:32.720Z,74.30
2018-08-17T17:18:06.328Z,73.70
2018-08-17T17:20:36.895Z,73.30
2018-08-17T17:23:07.034Z,73.00
2018-08-17T17:25:35.486Z,73.20
2018-08-17T17:28:03.824Z,73.00
2018-08-17T17:30:38.793Z,72.80
2018-08-17T17:33:07.252Z,72.00
2018-08-17T17:35:36.232Z,70.00
2018-08-17T17:38:04.855Z,68.70
2018-08-17T17:40:33.260Z,67.60
2018-08-17T17:43:01.825Z,66.90
2018-08-17T17:45:30.312Z,66.40
2018-08-17T17:47:59.536Z,66.50
2018-08-17T17:50:27.958Z,66.50
2018-08-17T17:52:56.391Z,66.80
2018-08-17T17:55:26.496Z,66.90
2018-08-17T17:57:54.820Z,66.90
2018-08-17T18:00:23.161Z,67.30
2018-08-17T18:02:51.606Z,67.30
2018-08-17T18:05:20.028Z,67.30
2018-08-17T18:07:49.544Z,67.80
2018-08-17T18:10:21.534Z,67.90
2018-08-17T18:12:50.288Z,68.30
2018-08-17T18:15:18.676Z,69.10
2018-08-17T18:17:47.091Z,69.10
2018-08-17T18:20:15.485Z,69.10
2018-08-17T18:22:43.833Z,69.30
2018-08-17T18:25:16.978Z,69.20
2018-08-17T18:27:45.652Z,69.70
2018-08-17T18:30:14.054Z,69.70
2018-08-17T18:32:42.398Z,69.70
2018-08-17T18:35:11.140Z,70.00
2018-08-17T18:37:39.546Z,70.30
2018-08-17T18:40:09.850Z,70.60
2018-08-17T18:42:38.299Z,71.00
2018-08-17T18:45:06.838Z,71.30
2018-08-17T18:47:35.349Z,71.60
2018-08-17T18:50:04.045Z,72.00
2018-08-17T18:52:32.876Z,72.30
2018-08-17T18:55:01.252Z,72.70
2018-08-17T18:57:29.473Z,72.90
2018-08-17T18:59:57.849Z,72.80
2018-08-17T19:02:26.229Z,73.10
2018-08-17T19:04:54.572Z,73.60
2018-08-17T19:07:23.116Z,73.80
2018-08-17T19:09:51.512Z,74.20
2018-08-17T19:12:20.018Z,74.20
2018-08-17T19:14:50.411Z,74.00
2018-08-17T19:17:24.030Z,73.80
2018-08-17T19:19:53.277Z,73.90
2018-08-17T19:22:21.986Z,75.40
2018-08-17T19:24:51.592Z,74.90
2018-08-17T19:27:37.360Z,75.40
2018-08-17T19:30:12.057Z,75.60
2018-08-17T19:32:40.685Z,75.90
2018-08-17T19:35:09.055Z,76.20
2018-08-17T19:37:39.839Z,76.20
2018-08-17T19:40:08.164Z,76.70
2018-08-17T19:42:36.658Z,76.90
2018-08-17T19:45:05.087Z,77.20
2018-08-17T19:47:33.585Z,77.70
2018-08-17T19:50:01.964Z,78.10
2018-08-17T19:52:30.458Z,78.40
2018-08-17T19:54:58.813Z,78.50
2018-08-17T19:57:27.235Z,78.90
2018-08-17T19:59:56.093Z,79.30
2018-08-17T20:02:24.429Z,79.40
2018-08-17T20:04:52.893Z,79.40
2018-08-17T20:07:21.257Z,79.60
2018-08-17T20:09:49.593Z,80.20
2018-08-17T20:12:17.928Z,80.10
2018-08-17T20:14:46.308Z,79.80
2018-08-17T20:17:14.704Z,80.00
2018-08-17T20:19:49.004Z,80.20
2018-08-17T20:22:20.468Z,80.30
2018-08-17T20:24:48.824Z,80.70
2018-08-17T20:27:17.904Z,80.80
2018-08-17T20:29:46.253Z,81.00
2018-08-17T20:32:14.721Z,81.30
2018-08-17T20:34:45.857Z,81.80
2018-08-17T20:37:15.441Z,82.10
2018-08-17T20:39:44.869Z,82.40
2018-08-17T20:42:13.420Z,82.40
2018-08-17T20:44:41.844Z,82.60
2018-08-17T20:47:11.004Z,82.60
2018-08-17T20:49:39.637Z,82.80
2018-08-17T20:52:08.188Z,83.10
2018-08-17T20:54:36.525Z,83.50
2018-08-17T20:57:04.909Z,83.50
2018-08-17T20:59:33.348Z,83.80
2018-08-17T21:02:01.891Z,84.10
2018-08-17T21:04:30.238Z,84.40
2018-08-17T21:06:58.684Z,84.60
2018-08-17T21:09:27.053Z,84.90
2018-08-17T21:11:55.624Z,85.10
2018-08-17T21:14:24.133Z,85.40
2018-08-17T21:16:52.681Z,86.00
2018-08-17T21:19:27.436Z,86.30
2018-08-17T21:21:55.909Z,86.60
2018-08-17T21:24:24.345Z,86.70
2018-08-17T21:26:52.701Z,86.90
2018-08-17T21:29:21.107Z,87.10
2018-08-17T21:31:50.845Z,87.20
2018-08-17T21:34:19.425Z,88.00
2018-08-17T21:36:47.777Z,87.40
2018-08-17T21:39:17.898Z,87.40
2018-08-17T21:41:47.668Z,87.70
2018-08-17T21:44:17.108Z,87.80
2018-08-17T21:46:54.611Z,88.00
2018-08-17T21:49:24.087Z,88.00
2018-08-17T21:51:56.857Z,88.10
2018-08-17T21:54:25.544Z,88.20
2018-08-17T21:56:54.520Z,88.40
2018-08-17T21:59:22.897Z,88.40
2018-08-17T22:01:51.272Z,88.30
2018-08-17T22:04:19.663Z,88.50
2018-08-17T22:06:47.997Z,88.70
2018-08-17T22:09:26.219Z,88.90
2018-08-17T22:11:54.538Z,89.00
2018-08-17T22:14:22.888Z,89.20
2018-08-17T22:16:51.197Z,89.30
2018-08-17T22:19:30.869Z,89.50
2018-08-17T22:21:59.228Z,89.60
2018-08-17T22:24:27.596Z,89.60
2018-08-17T22:26:55.906Z,89.70
2018-08-17T22:29:24.231Z,89.80
2018-08-17T22:31:52.684Z,90.00
2018-08-17T22:34:21.011Z,90.00
2018-08-17T22:36:49.365Z,90.10
2018-08-17T22:39:17.780Z,90.10
2018-08-17T22:41:46.205Z,90.20
2018-08-17T22:44:19.796Z,90.20
2018-08-17T22:46:58.048Z,90.30
2018-08-17T22:49:26.485Z,90.40
2018-08-17T22:51:54.832Z,90.30
2018-08-17T22:54:23.190Z,90.40
2018-08-17T22:56:51.556Z,90.40
2018-08-17T22:59:19.980Z,90.50
2018-08-17T23:01:48.340Z,90.60
2018-08-17T23:04:16.696Z,90.60
2018-08-17T23:06:45.116Z,90.80
2018-08-17T23:09:13.400Z,90.80
2018-08-17T23:11:41.756Z,90.90
2018-08-17T23:14:13.721Z,90.90
2018-08-17T23:16:42.935Z,91.00
2018-08-17T23:19:11.285Z,91.00
2018-08-17T23:21:39.865Z,91.10
2018-08-17T23:24:08.677Z,91.20
2018-08-17T23:26:37.045Z,91.20
2018-08-17T23:29:06.285Z,91.20
2018-08-17T23:31:34.652Z,91.30
2018-08-17T23:34:03.040Z,91.30
2018-08-17T23:36:31.441Z,91.40
2018-08-17T23:38:59.846Z,91.40
2018-08-17T23:41:28.145Z,91.40
2018-08-17T23:44:02.832Z,91.30
2018-08-17T23:46:31.211Z,91.30
2018-08-17T23:48:59.524Z,91.40
2018-08-17T23:51:27.994Z,91.50
2018-08-17T23:53:56.408Z,91.60
2018-08-17T23:56:24.788Z,91.60
2018-08-17T23:58:53.141Z,91.60
